This is the latest recevied weather packets stored in our database for station/object N0RRC. If no packets are shown the sender has not sent any weather packets the latest 10 day(s).
| Time | Temp. | Humidity | Pressure | Rain* | Wind** | Luminosity | Snow |
|---|---|---|---|---|---|---|---|
| 1777753618 | 12.78° C | 49% | 1015.3 hPa | 0 mm | - | 922 W/m² | - |
| 1777750017 | 12.78° C | 47% | 1016.3 hPa | 0 mm | - | 1037 W/m² | - |
| 1777743417 | 11.11° C | 47% | 1017.5 hPa | 0 mm | - | 1162 W/m² | - |
| 1777741657 | 9.44° C | 53% | 1017.8 hPa | 0 mm | - | 1113 W/m² | - |
| 1777738617 | 9.44° C | 57% | 1018.2 hPa | 0 mm | - | 884 W/m² | - |
| 1777738017 | 9.44° C | 57% | 1018.5 hPa | 0 mm | - | 865 W/m² | - |
| 1777733816 | 7.78° C | 66% | 1018.7 hPa | 0 mm | - | 713 W/m² | - |
| 1777732016 | 7.22° C | 68% | 1018.8 hPa | 0 mm | - | 635 W/m² | - |
| 1777731417 | 6.67° C | 69% | 1018.9 hPa | 0 mm | - | 606 W/m² | - |
| 1777726016 | 2.78° C | 92% | 1019 hPa | 0 mm | - | 263 W/m² | - |
| 1777724817 | 1.67° C | 93% | 1018.9 hPa | 0 mm | - | 204 W/m² | - |
| 1777722416 | 0° C | 93% | 1018.7 hPa | 0 mm | - | 112 W/m² | - |
| 1777718216 | -1.11° C | 93% | 1018.3 hPa | 0 mm | - | 0 W/m² | - |
| 1777717016 | -1.11° C | 92% | 1018.3 hPa | 0 mm | - | 0 W/m² | - |
| 1777715216 | -1.11° C | 92% | 1018.2 hPa | 0 mm | - | 0 W/m² | - |
| 1777709816 | -1.11° C | 88% | 1018 hPa | 0 mm | - | 0 W/m² | - |
| 1777709216 | -0.56° C | 88% | 1018 hPa | 0 mm | - | 0 W/m² | - |
| 1777708636 | 0° C | 88% | 1018.1 hPa | 0 mm | - | 0 W/m² | - |
| 1777706816 | 0° C | 87% | 1018.3 hPa | 0 mm | - | 0 W/m² | - |
| 1777705017 | 0° C | 87% | 1018.4 hPa | 0 mm | - | 0 W/m² | - |
| 1777703817 | 0° C | 86% | 1018.3 hPa | 0 mm | - | 0 W/m² | - |
| 1777700815 | -0.56° C | 86% | 1018.3 hPa | 0 mm | - | 0 W/m² | - |
| 1777696637 | 0.56° C | 82% | 1018.2 hPa | 0 mm | - | 0 W/m² | - |
| 1777696017 | 0.56° C | 82% | 1018.3 hPa | 0 mm | - | 0 W/m² | - |
| 1777694817 | 0.56° C | 79% | 1018.3 hPa | 0 mm | - | 0 W/m² | - |
* Rain latest hour (hover to see other rain measurements)
** Current wind speed in m/s (hover to see current wind gust speed)